createdAt,value
2024-04-11T00:00:00.359Z,8.8
2024-04-11T00:01:00.331Z,8.9
2024-04-11T00:02:01.361Z,8.9
2024-04-11T00:03:00.719Z,8.8
2024-04-11T00:04:00.945Z,8.8
2024-04-11T00:05:00.416Z,8.8
2024-04-11T00:06:01.855Z,8.8
2024-04-11T00:07:00.315Z,8.7
2024-04-11T00:08:00.369Z,8.7
2024-04-11T00:09:00.343Z,8.7
2024-04-11T00:10:00.343Z,8.6
2024-04-11T00:11:00.333Z,8.6
2024-04-11T00:12:00.529Z,8.6
2024-04-11T00:13:10.494Z,8.6
2024-04-11T00:14:00.324Z,8.5
2024-04-11T00:15:00.642Z,8.5
2024-04-11T00:16:00.401Z,8.5
2024-04-11T00:17:00.381Z,8.5
2024-04-11T00:18:00.598Z,8.5
2024-04-11T00:19:00.424Z,8.5
2024-04-11T00:20:00.314Z,8.5
2024-04-11T00:21:00.353Z,8.5
2024-04-11T00:22:00.330Z,8.5
2024-04-11T00:23:00.331Z,8.5
2024-04-11T00:24:00.533Z,8.5
2024-04-11T00:25:00.294Z,8.5
2024-04-11T00:26:03.450Z,8.5
2024-04-11T00:27:00.913Z,8.5
2024-04-11T00:28:04.466Z,8.5
2024-04-11T00:29:00.396Z,8.5
2024-04-11T00:30:00.540Z,8.4
2024-04-11T00:31:00.341Z,8.4
2024-04-11T00:32:00.473Z,8.4
2024-04-11T00:33:00.481Z,8.4
2024-04-11T00:34:00.587Z,8.4
2024-04-11T00:35:00.386Z,8.4
2024-04-11T00:36:01.501Z,8.4
2024-04-11T00:37:00.360Z,8.4
2024-04-11T00:38:01.397Z,8.3
2024-04-11T00:39:00.467Z,8.3
2024-04-11T00:40:00.367Z,8.2
2024-04-11T00:41:00.307Z,8.2
2024-04-11T00:42:00.346Z,8.2
2024-04-11T00:43:00.298Z,8.2
2024-04-11T00:44:00.348Z,8.2
2024-04-11T00:45:00.539Z,8.2
2024-04-11T00:46:00.366Z,8.2
2024-04-11T00:47:00.582Z,8.2
2024-04-11T00:48:00.606Z,8.2
2024-04-11T00:49:00.445Z,8.1
2024-04-11T00:50:01.457Z,8.1
2024-04-11T00:51:01.431Z,8.1
2024-04-11T00:52:00.366Z,8.1
2024-04-11T00:53:00.433Z,8.0
2024-04-11T00:54:00.969Z,8.0
2024-04-11T00:55:00.621Z,8.0
2024-04-11T00:56:01.006Z,8.0
2024-04-11T00:57:05.288Z,8.0
2024-04-11T00:58:01.211Z,7.9
2024-04-11T00:59:00.544Z,7.9
2024-04-11T01:00:00.474Z,7.9
2024-04-11T01:01:00.331Z,7.9
2024-04-11T01:02:00.463Z,7.9
2024-04-11T01:03:00.663Z,7.9
2024-04-11T01:04:01.096Z,7.9
2024-04-11T01:05:00.431Z,7.9
2024-04-11T01:06:00.535Z,7.9
2024-04-11T01:07:05.957Z,7.9
2024-04-11T01:08:01.177Z,7.9
2024-04-11T01:09:00.354Z,7.8
2024-04-11T01:10:00.424Z,7.8
2024-04-11T01:11:00.381Z,7.8
2024-04-11T01:12:00.849Z,7.8
2024-04-11T01:13:00.374Z,7.8
2024-04-11T01:14:00.344Z,7.8
2024-04-11T01:15:01.429Z,7.7
2024-04-11T01:16:00.547Z,7.7
2024-04-11T01:17:00.354Z,7.7
2024-04-11T01:18:01.237Z,7.7
2024-04-11T01:19:00.546Z,7.7
2024-04-11T01:20:00.275Z,7.7
2024-04-11T01:21:00.593Z,7.7
2024-04-11T01:22:00.314Z,7.6
2024-04-11T01:23:00.296Z,7.7
2024-04-11T01:24:00.398Z,7.7
2024-04-11T01:25:00.336Z,7.7
2024-04-11T01:26:00.348Z,7.7
2024-04-11T01:27:01.910Z,7.7
2024-04-11T01:28:00.291Z,7.7
2024-04-11T01:29:00.278Z,7.7
2024-04-11T01:30:01.577Z,7.7
2024-04-11T01:31:00.355Z,7.8
2024-04-11T01:32:00.655Z,7.8
2024-04-11T01:33:00.779Z,7.9
2024-04-11T01:34:00.579Z,7.9
2024-04-11T01:35:00.412Z,7.9
2024-04-11T01:36:00.401Z,7.8
2024-04-11T01:37:00.495Z,7.8
2024-04-11T01:38:00.380Z,7.8
2024-04-11T01:39:00.671Z,7.8
2024-04-11T01:40:00.361Z,7.7
2024-04-11T01:41:00.281Z,7.7
2024-04-11T01:42:00.541Z,7.7
2024-04-11T01:43:01.144Z,7.7
2024-04-11T01:44:00.279Z,7.6
2024-04-11T01:45:00.419Z,7.6
2024-04-11T01:46:00.292Z,7.6
2024-04-11T01:47:00.351Z,7.6
2024-04-11T01:48:00.444Z,7.5
2024-04-11T01:49:00.346Z,7.5
2024-04-11T01:50:00.353Z,7.5
2024-04-11T01:51:00.380Z,7.5
2024-04-11T01:52:00.282Z,7.5
2024-04-11T01:53:00.355Z,7.4
2024-04-11T01:54:00.596Z,7.4
2024-04-11T01:55:00.290Z,7.4
2024-04-11T01:56:00.328Z,7.4
2024-04-11T01:57:00.442Z,7.5
2024-04-11T01:58:00.337Z,7.5
2024-04-11T01:59:04.647Z,7.5
2024-04-11T02:00:00.549Z,7.5
2024-04-11T02:01:07.974Z,7.5
2024-04-11T02:02:00.367Z,7.5
2024-04-11T02:03:01.414Z,7.5
2024-04-11T02:04:02.884Z,7.5
2024-04-11T02:05:00.419Z,7.5
2024-04-11T02:06:00.402Z,7.4
2024-04-11T02:07:00.308Z,7.4
2024-04-11T02:08:01.049Z,7.4
2024-04-11T02:09:00.929Z,7.4
2024-04-11T02:10:00.271Z,7.4
2024-04-11T02:11:00.392Z,7.4
2024-04-11T02:12:00.455Z,7.4
2024-04-11T02:13:02.207Z,7.4
2024-04-11T02:14:01.104Z,7.4
2024-04-11T02:15:00.449Z,7.4
2024-04-11T02:16:00.554Z,7.4
2024-04-11T02:17:00.594Z,7.5
2024-04-11T02:18:00.548Z,7.5
2024-04-11T02:19:01.131Z,7.4
2024-04-11T02:20:00.361Z,7.4
2024-04-11T02:21:00.528Z,7.3
2024-04-11T02:22:00.377Z,7.3
2024-04-11T02:23:00.357Z,7.4
2024-04-11T02:24:00.928Z,7.4
2024-04-11T02:25:00.395Z,7.4
2024-04-11T02:26:00.360Z,7.4
2024-04-11T02:27:00.539Z,7.3
2024-04-11T02:28:00.342Z,7.3
2024-04-11T02:29:00.832Z,7.3
2024-04-11T02:30:00.759Z,7.3
2024-04-11T02:31:00.302Z,7.3
2024-04-11T02:32:00.345Z,7.3
2024-04-11T02:33:00.587Z,7.3
2024-04-11T02:34:00.782Z,7.3
2024-04-11T02:35:00.347Z,7.3
2024-04-11T02:36:00.762Z,7.3
2024-04-11T02:37:00.275Z,7.3
2024-04-11T02:38:00.308Z,7.2
2024-04-11T02:39:03.172Z,7.3
2024-04-11T02:40:00.399Z,7.2
2024-04-11T02:41:00.382Z,7.3
2024-04-11T02:42:00.376Z,7.3
2024-04-11T02:43:00.306Z,7.2
2024-04-11T02:44:00.370Z,7.2
2024-04-11T02:45:00.577Z,7.2
2024-04-11T02:46:00.337Z,7.3
2024-04-11T02:47:00.934Z,7.3
2024-04-11T02:48:00.520Z,7.3
2024-04-11T02:49:00.819Z,7.3
2024-04-11T02:50:00.269Z,7.3
2024-04-11T02:51:00.439Z,7.3
2024-04-11T02:52:00.559Z,7.3
2024-04-11T02:53:00.373Z,7.3
2024-04-11T02:54:00.659Z,7.3
2024-04-11T02:55:00.303Z,7.4
2024-04-11T02:56:00.378Z,7.4
2024-04-11T02:57:00.336Z,7.3
2024-04-11T02:58:00.346Z,7.3
2024-04-11T02:59:00.367Z,7.3
2024-04-11T03:00:00.662Z,7.2
2024-04-11T03:01:01.264Z,7.2
2024-04-11T03:02:00.337Z,7.1
2024-04-11T03:03:00.468Z,7.1
2024-04-11T03:04:00.658Z,7.1
2024-04-11T03:05:00.691Z,7.1
2024-04-11T03:06:16.011Z,7.2
2024-04-11T03:07:00.287Z,7.2
2024-04-11T03:08:00.272Z,7.1
2024-04-11T03:09:00.449Z,7.2
2024-04-11T03:10:00.328Z,7.2
2024-04-11T03:11:00.935Z,7.2
2024-04-11T03:12:00.483Z,7.2
2024-04-11T03:13:00.361Z,7.3
2024-04-11T03:14:00.319Z,7.3
2024-04-11T03:15:00.689Z,7.3
2024-04-11T03:16:01.432Z,7.2
2024-04-11T03:17:00.438Z,7.2
2024-04-11T03:18:00.519Z,7.2
2024-04-11T03:19:00.479Z,7.2
2024-04-11T03:20:00.286Z,7.1
2024-04-11T03:21:01.084Z,7.1
2024-04-11T03:22:00.655Z,7.0
2024-04-11T03:23:00.317Z,7.0
2024-04-11T03:24:00.608Z,7.0
2024-04-11T03:25:00.412Z,6.9
2024-04-11T03:26:00.346Z,6.9
2024-04-11T03:27:00.764Z,6.9
2024-04-11T03:28:00.306Z,6.9
2024-04-11T03:29:00.291Z,6.9
2024-04-11T03:30:00.581Z,6.9
2024-04-11T03:31:02.359Z,6.9
2024-04-11T03:32:00.280Z,6.9
2024-04-11T03:33:00.522Z,6.9
2024-04-11T03:34:00.455Z,6.8
2024-04-11T03:35:00.311Z,6.8
2024-04-11T03:36:01.908Z,6.8
2024-04-11T03:37:00.304Z,6.8
2024-04-11T03:38:00.333Z,6.8
2024-04-11T03:39:00.609Z,6.9
2024-04-11T03:40:00.327Z,6.8
2024-04-11T03:41:03.741Z,6.8
2024-04-11T03:42:00.468Z,6.8
2024-04-11T03:43:00.322Z,6.7
2024-04-11T03:44:00.348Z,6.7
2024-04-11T03:45:00.521Z,6.7
2024-04-11T03:46:17.635Z,6.6
2024-04-11T03:47:00.375Z,6.6
2024-04-11T03:48:00.473Z,6.6
2024-04-11T03:49:00.698Z,6.6
2024-04-11T03:50:00.332Z,6.6
2024-04-11T03:51:11.763Z,6.5
2024-04-11T03:52:00.602Z,6.5
2024-04-11T03:53:00.334Z,6.5
2024-04-11T03:54:00.761Z,6.5
2024-04-11T03:55:00.706Z,6.5
2024-04-11T03:56:00.316Z,6.4
2024-04-11T03:57:00.577Z,6.4
2024-04-11T03:58:00.350Z,6.4
2024-04-11T03:59:01.732Z,6.4
2024-04-11T04:00:00.547Z,6.4
2024-04-11T04:01:00.294Z,6.4
2024-04-11T04:02:00.331Z,6.4
2024-04-11T04:03:00.509Z,6.5
2024-04-11T04:04:02.147Z,6.6
2024-04-11T04:05:00.412Z,6.7
2024-04-11T04:06:00.595Z,6.7
2024-04-11T04:07:00.329Z,6.7
2024-04-11T04:08:00.328Z,6.7
2024-04-11T04:09:01.132Z,6.7
2024-04-11T04:10:00.301Z,6.7
2024-04-11T04:11:00.349Z,6.7
2024-04-11T04:12:00.465Z,6.7
2024-04-11T04:13:00.368Z,6.6
2024-04-11T04:14:00.338Z,6.6
2024-04-11T04:15:00.411Z,6.6
2024-04-11T04:16:00.312Z,6.6
2024-04-11T04:17:00.395Z,6.7
2024-04-11T04:18:00.402Z,6.7
2024-04-11T04:19:00.362Z,6.6
2024-04-11T04:20:00.281Z,6.6
2024-04-11T04:21:00.402Z,6.6
2024-04-11T04:22:00.332Z,6.7
2024-04-11T04:23:00.351Z,6.7
2024-04-11T04:24:00.695Z,6.7
2024-04-11T04:25:00.319Z,6.6
2024-04-11T04:26:02.022Z,6.7
2024-04-11T04:27:00.344Z,6.7
2024-04-11T04:28:00.363Z,6.7
2024-04-11T04:29:00.371Z,6.7
2024-04-11T04:30:00.916Z,6.7
2024-04-11T04:31:11.995Z,6.7
2024-04-11T04:32:00.291Z,6.7
2024-04-11T04:33:00.429Z,6.8
2024-04-11T04:34:02.778Z,6.8
2024-04-11T04:35:00.351Z,6.9
2024-04-11T04:36:00.502Z,6.9
2024-04-11T04:37:00.293Z,6.9
2024-04-11T04:38:00.276Z,7.0
2024-04-11T04:39:00.937Z,7.1
2024-04-11T04:40:00.344Z,7.1
2024-04-11T04:41:01.254Z,7.1
2024-04-11T04:42:00.358Z,7.2
2024-04-11T04:43:00.275Z,7.3
2024-04-11T04:44:00.987Z,7.3
2024-04-11T04:45:00.551Z,7.4
2024-04-11T04:46:00.283Z,7.4
2024-04-11T04:47:00.311Z,7.4
2024-04-11T04:48:00.470Z,7.5
2024-04-11T04:49:03.229Z,7.5
2024-04-11T04:50:00.398Z,7.7
2024-04-11T04:51:00.902Z,7.7
2024-04-11T04:52:00.298Z,7.8
2024-04-11T04:53:00.289Z,7.9
2024-04-11T04:54:00.472Z,8.0
2024-04-11T04:55:00.328Z,8.1
2024-04-11T04:56:00.376Z,8.2
2024-04-11T04:57:00.419Z,8.3
2024-04-11T04:58:00.296Z,8.4
2024-04-11T04:59:00.621Z,8.6
2024-04-11T05:00:00.401Z,8.6
2024-04-11T05:01:00.777Z,8.7
2024-04-11T05:02:00.352Z,8.7
2024-04-11T05:03:04.428Z,8.8
2024-04-11T05:04:00.584Z,8.8
2024-04-11T05:05:00.300Z,8.8
2024-04-11T05:06:01.133Z,8.9
2024-04-11T05:07:00.845Z,9.0
2024-04-11T05:08:00.354Z,9.1
2024-04-11T05:09:00.407Z,9.2
2024-04-11T05:10:00.278Z,9.3
2024-04-11T05:11:02.002Z,9.4
2024-04-11T05:12:00.386Z,9.4
2024-04-11T05:13:00.884Z,9.5
2024-04-11T05:14:00.305Z,9.6
2024-04-11T05:15:00.607Z,9.8
2024-04-11T05:16:00.323Z,9.8
2024-04-11T05:17:00.360Z,9.9
2024-04-11T05:18:00.482Z,10.0
2024-04-11T05:19:00.427Z,10.1
2024-04-11T05:20:00.344Z,10.2
2024-04-11T05:21:00.288Z,10.4
2024-04-11T05:22:01.194Z,10.5
2024-04-11T05:23:00.659Z,10.6
2024-04-11T05:24:00.447Z,10.7
2024-04-11T05:25:00.333Z,10.7
2024-04-11T05:26:00.903Z,10.6
2024-04-11T05:27:00.361Z,10.7
2024-04-11T05:28:00.345Z,10.7
2024-04-11T05:29:00.338Z,10.6
2024-04-11T05:30:00.574Z,10.7
2024-04-11T05:31:00.997Z,10.7
2024-04-11T05:32:00.332Z,10.9
2024-04-11T05:33:00.484Z,10.9
2024-04-11T05:34:00.469Z,11.0
2024-04-11T05:35:00.291Z,11.1
2024-04-11T05:36:00.303Z,11.2
2024-04-11T05:37:00.281Z,11.4
2024-04-11T05:38:00.414Z,11.4
2024-04-11T05:39:00.454Z,11.6
2024-04-11T05:40:00.359Z,11.7
2024-04-11T05:41:00.298Z,11.9
2024-04-11T05:42:00.380Z,11.9
2024-04-11T05:43:00.341Z,12.1
2024-04-11T05:44:00.635Z,12.1
2024-04-11T05:45:00.340Z,12.1
2024-04-11T05:46:00.292Z,12.2
2024-04-11T05:47:00.388Z,12.4
2024-04-11T05:48:00.575Z,12.5
2024-04-11T05:49:00.519Z,12.7
2024-04-11T05:50:00.346Z,12.5
2024-04-11T05:51:00.454Z,12.6
2024-04-11T05:52:00.282Z,12.8
2024-04-11T05:53:00.302Z,12.9
2024-04-11T05:54:00.434Z,12.9
2024-04-11T05:55:00.275Z,12.9
2024-04-11T05:56:00.435Z,13.2
2024-04-11T05:57:00.394Z,13.2
2024-04-11T05:58:00.317Z,13.4
2024-04-11T05:59:00.276Z,13.6
2024-04-11T06:00:00.463Z,13.8
2024-04-11T06:01:02.006Z,13.9
2024-04-11T06:02:00.396Z,14.1
2024-04-11T06:03:00.401Z,14.2
2024-04-11T06:04:00.384Z,14.3
2024-04-11T06:05:00.348Z,14.4
2024-04-11T06:06:00.881Z,14.4
2024-04-11T06:07:00.411Z,14.5
2024-04-11T06:08:00.481Z,14.2
2024-04-11T06:09:00.544Z,14.1
2024-04-11T06:10:00.331Z,14.0
2024-04-11T06:11:00.383Z,13.8
2024-04-11T06:12:01.247Z,13.3
2024-04-11T06:13:00.809Z,12.9
2024-04-11T06:14:00.413Z,13.5
2024-04-11T06:15:00.403Z,14.0
2024-04-11T06:16:00.325Z,14.0
2024-04-11T06:17:00.332Z,14.5
2024-04-11T06:18:00.707Z,14.1
2024-04-11T06:19:00.455Z,14.3
2024-04-11T06:20:00.326Z,13.9
2024-04-11T06:21:01.194Z,13.1
2024-04-11T06:22:00.299Z,13.1
2024-04-11T06:23:00.275Z,13.3
2024-04-11T06:24:03.285Z,13.9
2024-04-11T06:25:00.330Z,14.2
2024-04-11T06:26:00.331Z,14.4
2024-04-11T06:27:00.380Z,14.0
2024-04-11T06:28:00.327Z,13.6
2024-04-11T06:29:00.400Z,13.8
2024-04-11T06:30:00.442Z,13.9
2024-04-11T06:31:00.306Z,14.3
2024-04-11T06:32:00.333Z,14.5
2024-04-11T06:33:00.583Z,14.8
2024-04-11T06:34:00.839Z,14.4
2024-04-11T06:35:03.404Z,14.2
2024-04-11T06:36:00.392Z,14.2
2024-04-11T06:37:00.325Z,14.2
2024-04-11T06:38:00.465Z,14.4
2024-04-11T06:39:00.361Z,14.3
2024-04-11T06:40:01.003Z,14.5
2024-04-11T06:41:00.353Z,14.5
2024-04-11T06:42:00.345Z,15.1
2024-04-11T06:43:00.499Z,15.5
2024-04-11T06:44:07.012Z,16.0
2024-04-11T06:45:00.353Z,16.2
2024-04-11T06:46:00.301Z,16.5
2024-04-11T06:47:00.304Z,16.5
2024-04-11T06:48:00.705Z,16.5
2024-04-11T06:49:00.375Z,16.6
2024-04-11T06:50:00.316Z,16.8
2024-04-11T06:51:00.426Z,17.0
2024-04-11T06:52:00.770Z,17.0
2024-04-11T06:53:00.368Z,17.2
2024-04-11T06:54:00.306Z,17.4
2024-04-11T06:55:00.328Z,17.7
2024-04-11T06:56:00.278Z,17.6
2024-04-11T06:57:00.538Z,17.5
2024-04-11T06:58:00.857Z,18.0
2024-04-11T06:59:00.426Z,18.2
2024-04-11T07:00:00.374Z,18.1
2024-04-11T07:01:01.232Z,17.7
2024-04-11T07:02:00.490Z,16.8
2024-04-11T07:03:00.445Z,16.5
2024-04-11T07:04:00.369Z,16.1
2024-04-11T07:05:00.351Z,16.3
2024-04-11T07:06:01.615Z,16.4
2024-04-11T07:07:00.341Z,17.0
2024-04-11T07:08:00.291Z,17.6
2024-04-11T07:09:00.369Z,17.8
2024-04-11T07:10:00.336Z,18.3
2024-04-11T07:11:02.070Z,18.5
2024-04-11T07:12:00.531Z,18.5
2024-04-11T07:13:00.365Z,18.7
2024-04-11T07:14:00.304Z,18.0
2024-04-11T07:15:00.452Z,18.3
2024-04-11T07:16:00.348Z,18.1
2024-04-11T07:17:00.297Z,18.5
2024-04-11T07:18:00.476Z,18.9
2024-04-11T07:19:00.994Z,19.0
2024-04-11T07:20:00.782Z,18.9
2024-04-11T07:21:01.461Z,18.9
2024-04-11T07:22:00.348Z,18.1
2024-04-11T07:23:00.770Z,17.8
2024-04-11T07:24:01.701Z,17.6
2024-04-11T07:25:00.353Z,18.1
2024-04-11T07:26:00.308Z,18.3
2024-04-11T07:27:00.353Z,18.6
2024-04-11T07:28:00.318Z,18.4
2024-04-11T07:29:03.337Z,18.5
2024-04-11T07:30:00.427Z,19.0
2024-04-11T07:31:00.320Z,19.1
2024-04-11T07:32:00.337Z,18.8
2024-04-11T07:33:00.426Z,19.1
2024-04-11T07:34:00.745Z,19.1
2024-04-11T07:35:00.359Z,19.4
2024-04-11T07:36:00.362Z,19.6
2024-04-11T07:37:00.331Z,19.8
2024-04-11T07:38:00.350Z,19.7
2024-04-11T07:39:00.409Z,19.8
2024-04-11T07:40:00.336Z,19.6
2024-04-11T07:41:00.397Z,20.0
2024-04-11T07:42:00.329Z,20.3
2024-04-11T07:43:01.211Z,20.0
2024-04-11T07:44:00.356Z,20.1
2024-04-11T07:45:00.381Z,20.6
2024-04-11T07:46:00.289Z,20.6
2024-04-11T07:47:11.702Z,20.8
2024-04-11T07:48:03.827Z,20.9
2024-04-11T07:49:00.852Z,20.6
2024-04-11T07:50:00.521Z,20.5
2024-04-11T07:51:01.399Z,20.4
2024-04-11T07:52:00.302Z,20.5
2024-04-11T07:53:00.450Z,20.4
2024-04-11T07:54:00.415Z,20.2
2024-04-11T07:55:00.342Z,20.1
2024-04-11T07:56:00.340Z,20.0
2024-04-11T07:57:00.428Z,19.5
2024-04-11T07:58:00.303Z,19.5
2024-04-11T07:59:00.402Z,19.5
2024-04-11T08:00:00.499Z,19.8
2024-04-11T08:01:00.403Z,19.9
2024-04-11T08:02:00.313Z,20.2
2024-04-11T08:03:00.324Z,20.8
2024-04-11T08:04:03.428Z,21.1
2024-04-11T08:05:00.336Z,21.0
2024-04-11T08:06:00.498Z,21.1
2024-04-11T08:07:00.294Z,21.3
2024-04-11T08:08:00.424Z,21.3
2024-04-11T08:09:01.184Z,21.3
2024-04-11T08:10:00.347Z,20.9
2024-04-11T08:11:00.323Z,20.9
2024-04-11T08:12:01.515Z,20.6
2024-04-11T08:13:00.355Z,20.6
2024-04-11T08:14:01.962Z,20.0
2024-04-11T08:15:01.143Z,19.5
2024-04-11T08:16:00.488Z,18.2
2024-04-11T08:17:00.280Z,17.5
2024-04-11T08:18:00.618Z,18.2
2024-04-11T08:19:01.091Z,18.9
2024-04-11T08:20:00.355Z,19.1
2024-04-11T08:21:00.425Z,19.6
2024-04-11T08:22:01.871Z,19.7
2024-04-11T08:23:04.065Z,19.2
2024-04-11T08:24:00.365Z,19.3
2024-04-11T08:25:00.332Z,19.1
2024-04-11T08:26:04.255Z,19.4
2024-04-11T08:27:00.284Z,19.4
2024-04-11T08:28:00.327Z,19.5
2024-04-11T08:29:00.361Z,19.7
2024-04-11T08:30:00.521Z,20.1
2024-04-11T08:31:00.274Z,20.3
2024-04-11T08:32:00.361Z,20.4
2024-04-11T08:33:00.364Z,20.6
2024-04-11T08:34:00.368Z,20.9
2024-04-11T08:35:00.436Z,21.3
2024-04-11T08:36:02.287Z,21.4
2024-04-11T08:37:00.285Z,20.8
2024-04-11T08:38:00.332Z,20.5
2024-04-11T08:39:00.637Z,20.8
2024-04-11T08:40:00.287Z,20.9
2024-04-11T08:41:15.835Z,21.0
2024-04-11T08:42:00.442Z,21.3
2024-04-11T08:43:00.443Z,21.4
2024-04-11T08:44:00.405Z,21.4
2024-04-11T08:45:00.438Z,21.6
2024-04-11T08:46:01.693Z,21.8
2024-04-11T08:47:00.413Z,21.4
2024-04-11T08:48:00.764Z,20.2
2024-04-11T08:49:00.412Z,19.9
2024-04-11T08:50:00.636Z,20.0
2024-04-11T08:51:03.625Z,20.4
2024-04-11T08:52:01.915Z,20.2
2024-04-11T08:53:01.480Z,20.5
2024-04-11T08:54:04.497Z,20.9
2024-04-11T08:55:01.051Z,20.4
2024-04-11T08:56:01.599Z,19.7
2024-04-11T08:57:01.248Z,19.6
2024-04-11T08:58:00.684Z,19.0
2024-04-11T08:59:00.339Z,18.5
2024-04-11T09:00:01.942Z,18.5
2024-04-11T09:01:04.616Z,18.6
2024-04-11T09:02:00.289Z,19.0
2024-04-11T09:03:00.535Z,19.5
2024-04-11T09:04:00.300Z,19.2
2024-04-11T09:05:08.052Z,19.2
2024-04-11T09:06:00.358Z,19.2
2024-04-11T09:07:00.315Z,19.0
2024-04-11T09:08:00.335Z,18.9
2024-04-11T09:09:00.422Z,18.7
2024-04-11T09:10:00.343Z,18.4
2024-04-11T09:11:00.351Z,18.5
2024-04-11T09:12:00.348Z,18.8
2024-04-11T09:13:00.342Z,18.8
2024-04-11T09:14:00.806Z,18.7
2024-04-11T09:15:05.360Z,18.6
2024-04-11T09:16:01.016Z,18.8
2024-04-11T09:17:00.716Z,18.8
2024-04-11T09:18:00.487Z,18.9
2024-04-11T09:19:03.137Z,18.5
2024-04-11T09:20:01.434Z,18.1
2024-04-11T09:21:02.551Z,18.1
2024-04-11T09:22:00.283Z,17.8
2024-04-11T09:23:00.266Z,17.7
2024-04-11T09:24:00.398Z,17.7
2024-04-11T09:25:03.339Z,17.5
2024-04-11T09:26:01.847Z,17.8
2024-04-11T09:27:00.434Z,18.2
2024-04-11T09:28:01.215Z,18.6
2024-04-11T09:29:00.342Z,18.6
2024-04-11T09:30:00.494Z,18.2
2024-04-11T09:31:00.287Z,17.9
2024-04-11T09:32:00.788Z,18.1
2024-04-11T09:33:01.286Z,18.6
2024-04-11T09:34:01.926Z,18.9
2024-04-11T09:35:01.376Z,19.3
2024-04-11T09:36:03.011Z,19.7
2024-04-11T09:37:01.278Z,20.0
2024-04-11T09:38:02.304Z,19.6
2024-04-11T09:39:02.467Z,18.8
2024-04-11T09:40:01.708Z,18.8
2024-04-11T09:41:00.761Z,18.7
2024-04-11T09:42:01.358Z,18.6
2024-04-11T09:43:01.950Z,18.4
2024-04-11T09:44:03.618Z,18.0
2024-04-11T09:45:01.234Z,18.1
2024-04-11T09:46:01.848Z,18.1
2024-04-11T09:47:00.966Z,17.9
2024-04-11T09:48:03.040Z,17.6
2024-04-11T09:49:01.028Z,17.3
2024-04-11T09:50:02.358Z,17.2
2024-04-11T09:51:00.958Z,16.9
2024-04-11T09:52:00.906Z,16.9
2024-04-11T09:53:00.392Z,16.7
2024-04-11T09:54:01.360Z,16.4
2024-04-11T09:55:02.473Z,16.2
2024-04-11T09:56:00.750Z,16.0
2024-04-11T09:57:00.572Z,16.0
2024-04-11T09:58:03.414Z,16.2
2024-04-11T09:59:00.351Z,16.2
2024-04-11T10:00:01.166Z,16.1
2024-04-11T10:01:00.405Z,16.0
2024-04-11T10:02:01.836Z,16.1
2024-04-11T10:03:00.484Z,16.1
2024-04-11T10:04:02.486Z,16.3
2024-04-11T10:05:02.453Z,16.4
2024-04-11T10:06:02.168Z,16.4
2024-04-11T10:07:00.466Z,16.4
2024-04-11T10:08:00.651Z,16.5
2024-04-11T10:09:15.870Z,16.6
2024-04-11T10:10:00.614Z,16.8
2024-04-11T10:11:02.467Z,16.8
2024-04-11T10:12:06.530Z,16.7
2024-04-11T10:13:00.667Z,16.5
2024-04-11T10:14:00.768Z,16.5
2024-04-11T10:15:00.370Z,16.7
2024-04-11T10:16:04.438Z,16.8
2024-04-11T10:17:02.297Z,16.9
2024-04-11T10:18:15.872Z,16.9
2024-04-11T10:19:02.042Z,16.8
2024-04-11T10:20:10.657Z,16.6
2024-04-11T10:21:02.491Z,16.6
2024-04-11T10:22:03.930Z,16.6
2024-04-11T10:23:00.296Z,16.5
2024-04-11T10:24:11.020Z,16.5
2024-04-11T10:25:03.920Z,16.5
2024-04-11T10:26:03.266Z,16.6
2024-04-11T10:27:15.885Z,16.4
2024-04-11T10:28:10.458Z,16.4
2024-04-11T10:29:17.706Z,16.3
2024-04-11T10:30:03.905Z,16.4
2024-04-11T10:31:01.856Z,16.4
2024-04-11T10:32:00.475Z,16.4
2024-04-11T10:33:02.256Z,16.2
2024-04-11T10:34:01.429Z,16.2
2024-04-11T10:35:00.652Z,16.2
2024-04-11T10:36:01.825Z,16.3
2024-04-11T10:37:02.522Z,16.4
2024-04-11T10:38:00.276Z,16.4
2024-04-11T10:39:00.872Z,16.3
2024-04-11T10:40:00.567Z,16.3
2024-04-11T10:41:00.578Z,16.3
2024-04-11T10:42:00.500Z,16.4
2024-04-11T10:43:07.719Z,16.6
2024-04-11T10:44:01.027Z,16.5
2024-04-11T10:45:00.380Z,16.3
2024-04-11T10:46:00.439Z,16.3
2024-04-11T10:47:02.058Z,16.4
2024-04-11T10:48:02.936Z,16.4
2024-04-11T10:49:02.001Z,16.3
2024-04-11T10:50:00.279Z,16.2
2024-04-11T10:51:00.824Z,16.3
2024-04-11T10:52:00.493Z,16.5
2024-04-11T10:53:03.253Z,16.5
2024-04-11T10:54:01.015Z,16.6
2024-04-11T10:55:00.997Z,16.4
2024-04-11T10:56:02.196Z,16.3
2024-04-11T10:57:00.387Z,16.2
2024-04-11T10:58:00.392Z,16.2
2024-04-11T10:59:00.304Z,16.2
2024-04-11T11:00:00.451Z,16.2
2024-04-11T11:01:00.435Z,16.3
2024-04-11T11:02:06.148Z,16.4
2024-04-11T11:03:00.550Z,16.4
2024-04-11T11:04:01.083Z,16.5
2024-04-11T11:05:00.923Z,16.6
2024-04-11T11:06:00.346Z,16.6
2024-04-11T11:07:07.969Z,16.6
2024-04-11T11:08:00.279Z,16.5
2024-04-11T11:09:01.849Z,16.4
2024-04-11T11:10:00.346Z,16.2
2024-04-11T11:11:00.365Z,16.3
2024-04-11T11:12:01.994Z,16.4
2024-04-11T11:13:00.369Z,16.5
2024-04-11T11:14:01.567Z,16.6
2024-04-11T11:15:00.435Z,16.5
2024-04-11T11:16:00.369Z,16.3
2024-04-11T11:17:00.345Z,16.2
2024-04-11T11:18:00.410Z,16.2
2024-04-11T11:19:00.279Z,16.3
2024-04-11T11:20:00.358Z,16.4
2024-04-11T11:21:00.374Z,16.4
2024-04-11T11:22:00.593Z,16.4
2024-04-11T11:23:00.283Z,16.3
2024-04-11T11:24:02.044Z,16.2
2024-04-11T11:25:00.727Z,16.2
2024-04-11T11:26:00.537Z,16.2
2024-04-11T11:27:01.639Z,16.2
2024-04-11T11:28:00.304Z,16.2
2024-04-11T11:29:00.282Z,16.2
2024-04-11T11:30:01.425Z,16.3
2024-04-11T11:31:00.372Z,16.3
2024-04-11T11:32:01.243Z,16.4
2024-04-11T11:33:00.364Z,16.2
2024-04-11T11:34:00.543Z,16.2
2024-04-11T11:35:00.332Z,16.2
2024-04-11T11:36:00.369Z,16.3
2024-04-11T11:37:00.306Z,16.2
2024-04-11T11:38:00.329Z,16.0
2024-04-11T11:39:00.338Z,15.8
2024-04-11T11:40:00.325Z,15.8
2024-04-11T11:41:00.370Z,15.8
2024-04-11T11:42:01.198Z,15.8
2024-04-11T11:43:00.358Z,15.8
2024-04-11T11:44:00.347Z,15.9
2024-04-11T11:45:01.078Z,15.9
2024-04-11T11:46:00.298Z,16.0
2024-04-11T11:47:00.326Z,16.1
2024-04-11T11:48:00.400Z,16.1
2024-04-11T11:49:00.335Z,16.1
2024-04-11T11:50:03.132Z,16.0
2024-04-11T11:51:00.528Z,15.8
2024-04-11T11:52:00.353Z,15.8
2024-04-11T11:53:00.338Z,15.8
2024-04-11T11:54:00.458Z,15.8
2024-04-11T11:55:00.594Z,15.8
2024-04-11T11:56:04.856Z,15.9
2024-04-11T11:57:01.666Z,15.9
2024-04-11T11:58:02.928Z,16.0
2024-04-11T11:59:00.396Z,16.0
2024-04-11T12:00:00.359Z,16.0
2024-04-11T12:01:00.395Z,16.1
2024-04-11T12:02:00.387Z,16.1
2024-04-11T12:03:00.455Z,16.2
2024-04-11T12:04:00.466Z,16.2
2024-04-11T12:05:00.462Z,16.1
2024-04-11T12:06:01.284Z,16.0
2024-04-11T12:07:00.339Z,16.0
2024-04-11T12:08:00.892Z,15.9
2024-04-11T12:09:02.222Z,15.9
2024-04-11T12:10:00.280Z,15.9
2024-04-11T12:11:00.342Z,15.9
2024-04-11T12:12:00.571Z,15.8
2024-04-11T12:13:00.331Z,15.8
2024-04-11T12:14:00.292Z,15.9
2024-04-11T12:15:00.342Z,16.0
2024-04-11T12:16:01.098Z,16.0
2024-04-11T12:17:00.988Z,16.0
2024-04-11T12:18:00.399Z,16.0
2024-04-11T12:19:00.738Z,16.0
2024-04-11T12:20:00.333Z,16.0
2024-04-11T12:21:01.064Z,15.8
2024-04-11T12:22:00.299Z,15.8
2024-04-11T12:23:00.325Z,15.9
2024-04-11T12:24:00.558Z,15.8
2024-04-11T12:25:00.723Z,15.9
2024-04-11T12:26:00.342Z,15.9
2024-04-11T12:27:00.410Z,16.0
2024-04-11T12:28:00.321Z,16.0
2024-04-11T12:29:00.298Z,16.0
2024-04-11T12:30:00.697Z,15.9
2024-04-11T12:31:06.918Z,15.9
2024-04-11T12:32:00.397Z,15.9
2024-04-11T12:33:00.478Z,16.0
2024-04-11T12:34:00.466Z,16.0
2024-04-11T12:35:00.280Z,16.0
2024-04-11T12:36:00.986Z,16.0
2024-04-11T12:37:02.390Z,16.0
2024-04-11T12:38:01.754Z,16.0
2024-04-11T12:39:00.796Z,16.0
2024-04-11T12:40:00.280Z,16.0
2024-04-11T12:41:00.599Z,16.0
2024-04-11T12:42:00.369Z,16.0
2024-04-11T12:43:00.732Z,16.0
2024-04-11T12:44:00.281Z,16.0
2024-04-11T12:45:00.458Z,16.0
2024-04-11T12:46:00.315Z,16.0
2024-04-11T12:47:00.446Z,16.0
2024-04-11T12:48:00.943Z,16.0
2024-04-11T12:49:11.034Z,16.0
2024-04-11T12:50:00.328Z,16.0
2024-04-11T12:51:01.072Z,16.0
2024-04-11T12:52:00.480Z,15.9
2024-04-11T12:53:00.294Z,16.0
2024-04-11T12:54:00.576Z,15.9
2024-04-11T12:55:01.287Z,15.9
2024-04-11T12:56:00.273Z,16.0
2024-04-11T12:57:00.382Z,15.9
2024-04-11T12:58:00.412Z,15.9
2024-04-11T12:59:00.327Z,15.9
2024-04-11T13:00:00.566Z,15.9
2024-04-11T13:01:00.339Z,16.0
2024-04-11T13:02:01.215Z,16.0
2024-04-11T13:03:01.097Z,16.1
2024-04-11T13:04:00.285Z,16.1
2024-04-11T13:05:00.554Z,16.0
2024-04-11T13:06:01.168Z,15.9
2024-04-11T13:07:01.092Z,15.9
2024-04-11T13:08:01.662Z,16.0
2024-04-11T13:09:00.504Z,16.1
2024-04-11T13:10:00.297Z,16.1
2024-04-11T13:11:00.843Z,16.1
2024-04-11T13:12:01.716Z,16.2
2024-04-11T13:13:00.704Z,16.2
2024-04-11T13:14:00.335Z,16.2
2024-04-11T13:15:01.668Z,16.2
2024-04-11T13:16:00.366Z,16.2
2024-04-11T13:17:00.273Z,16.2
2024-04-11T13:18:00.414Z,16.2
2024-04-11T13:19:00.338Z,16.2
2024-04-11T13:20:00.513Z,16.3
2024-04-11T13:21:00.378Z,16.3
2024-04-11T13:22:01.733Z,16.2
2024-04-11T13:23:00.271Z,16.2
2024-04-11T13:24:00.550Z,16.2
2024-04-11T13:25:00.336Z,16.2
2024-04-11T13:26:00.384Z,16.2
2024-04-11T13:27:00.362Z,16.2
2024-04-11T13:28:00.333Z,16.1
2024-04-11T13:29:00.542Z,16.1